Latest Weather Observations for Burketown Airport

IDQ60801

Issued at 1:02 am EST Sunday 22 January 2017 (issued every 30 minutes, with the page automatically refreshed every 10 minutes)

About weather observations | Map of weather stations | Latest weather observations for QLD | Other Formats
Station Details ID: 029077 Name: BURKETOWN AIRPORT Lat: -17.75 Lon: 139.54 Height: 5.7 m
Data from the previous 72 hours. | See also: Recent months at Burketown Airport
Date/Time
EST
Temp
°C
App
Temp
°C
Dew
Point
°C
Rel
Hum
%
Delta-T
°C
Wind Press
QNH
hPa
Press
MSL
hPa
Rain since
9am
mm
Dir  Spd
km/h
Gust
km/h
Spd
kts
Gust
kts
22/01:00am - - - - - N 7 9 4 5 1007.6 - 0.0
22/12:30am - - - - - CALM 0 0 0 0 1008.0 - 0.0
22/12:00am - - - - - N 7 9 4 5 1008.3 1008.2 0.0
 
Date/Time
EST
Temp
°C
App
Temp
°C
Dew
Point
°C
Rel
Hum
%
Delta-T
°C
Wind Press
QNH
hPa
Press
MSL
hPa
Rain since
9am
mm
Dir  Spd
km/h
Gust
km/h
Spd
kts
Gust
kts
21/11:30pm - - - - - N 6 7 3 4 1008.6 - 0.0
21/11:00pm - - - - - N 9 13 5 7 1008.8 - 0.0
21/10:30pm - - - - - N 11 13 6 7 1008.6 - 0.0
21/10:00pm - - - - - N 13 15 7 8 1008.1 - 0.0
21/09:30pm - - - - - N 13 15 7 8 1007.5 - 0.0
21/09:00pm - - - - - N 9 11 5 6 1006.9 1006.8 0.0
21/08:30pm - - - - - NNE 13 15 7 8 1006.6 - 0.0
21/08:00pm - - - - - NE 13 17 7 9 1006.5 - 0.0
21/07:30pm - - - - - NNE 15 20 8 11 1006.0 - 0.0
21/07:00pm - - - - - NNE 15 20 8 11 1005.6 - 0.0
21/06:30pm - - - - - NNE 15 20 8 11 1005.3 - 0.0
21/06:00pm - - - - - NNE 15 20 8 11 1005.1 1005.0 0.0
21/05:30pm - - - - - NNE 13 17 7 9 1005.1 - 0.0
21/05:00pm - - - - - NNE 13 20 7 11 1005.4 - 0.0
21/04:30pm - - - - - NNE 15 20 8 11 1005.3 - 0.0
21/04:00pm - - - - - N 15 24 8 13 1005.4 - 0.0
21/03:30pm - - - - - N 15 22 8 12 1005.7 - 0.0
21/03:00pm - - - - - NNE 13 20 7 11 1006.1 1006.0 0.0
21/02:30pm - - - - - N 17 24 9 13 1006.5 - 0.0
21/02:00pm - - - - - NNE 19 22 10 12 1006.9 - 0.0
21/01:30pm - - - - - NNE 19 24 10 13 1007.2 - 0.0
21/01:00pm - - - - - NNE 17 22 9 12 1007.5 - 0.0
21/12:30pm - - - - - NNE 17 22 9 12 1007.6 - 0.0
21/12:00pm - - - - - N 13 20 7 11 1007.9 1007.8 0.0
21/11:30am - - - - - SW 4 7 2 4 1008.4 - 0.0
21/11:00am - - - - - NNW 7 13 4 7 1008.5 - 0.0
21/10:30am - - - - - WNW 11 17 6 9 1008.8 - 0.0
21/10:00am - - - - - NW 9 15 5 8 1009.1 - 0.0
21/09:30am - - - - - W 11 15 6 8 1009.1 - 0.0
21/09:00am - - - - - WNW 11 15 6 8 1009.2 1009.1 0.0
21/08:30am - - - - - WNW 11 15 6 8 1009.2 - 0.0
21/08:00am - - - - - WNW 9 15 5 8 1009.0 - 0.0
21/07:30am - - - - - WNW 7 11 4 6 1008.8 - 0.0
21/07:00am - - - - - CALM 0 0 0 0 1008.7 - 0.0
21/06:30am - - - - - CALM 0 0 0 0 1008.2 - 0.0
21/06:00am - - - - - NW 4 7 2 4 1007.9 1007.8 0.0
21/05:30am - - - - - NW 6 7 3 4 1007.6 - 0.0
21/05:00am - - - - - NW 6 7 3 4 1007.3 - 0.0
21/04:30am - - - - - NW 7 7 4 4 1007.0 - 0.0
21/04:00am - - - - - W 4 6 2 3 1007.0 - 0.0
21/03:30am - - - - - W 6 7 3 4 1007.0 - 0.0
21/03:00am - - - - - WNW 9 11 5 6 1007.0 1006.9 0.0
21/02:30am - - - - - W 9 11 5 6 1007.3 - 0.0
21/02:00am - - - - - WNW 7 9 4 5 1007.4 - 0.0
21/01:30am - - - - - NNW 9 11 5 6 1007.5 - 0.0
21/01:00am - - - - - N 11 15 6 8 1007.9 - 0.0
21/12:00am - - - - - N 11 13 6 7 1008.2 1008.1 0.0
 
Date/Time
EST
Temp
°C
App
Temp
°C
Dew
Point
°C
Rel
Hum
%
Delta-T
°C
Wind Press
QNH
hPa
Press
MSL
hPa
Rain since
9am
mm
Dir  Spd
km/h
Gust
km/h
Spd
kts
Gust
kts
20/11:30pm - - - - - N 11 13 6 7 1008.3 - 0.0
20/11:00pm - - - - - N 13 17 7 9 1008.1 - 0.0
20/10:00pm - - - - - N 11 15 6 8 1007.3 - 0.0
20/09:30pm - - - - - N 15 19 8 10 1007.1 - 0.0
20/09:00pm - - - - - NNE 17 20 9 11 1006.7 1006.6 0.0
20/08:30pm - - - - - NNE 17 22 9 12 1006.7 - 0.0
20/08:00pm - - - - - NNE 15 19 8 10 1006.2 - 0.0
20/07:30pm - - - - - NNE 17 22 9 12 1005.9 - 0.0
20/07:00pm - - - - - NNE 19 24 10 13 1005.7 - 0.0
20/06:30pm - - - - - N 20 28 11 15 1005.5 - 0.0
20/06:00pm - - - - - N 22 28 12 15 1005.2 1005.1 0.0
20/05:30pm - - - - - NNE 22 32 12 17 1004.9 - 0.0
20/05:00pm - - - - - NNE 22 30 12 16 1004.7 - 0.0
20/04:30pm - - - - - NNE 17 22 9 12 1004.6 - 0.0
20/04:00pm - - - - - NNE 20 30 11 16 1005.0 - 0.0
20/03:30pm - - - - - NNE 19 26 10 14 1005.1 - 0.0
20/03:00pm - - - - - NE 13 19 7 10 1005.4 1005.3 0.0
20/02:30pm - - - - - N 13 20 7 11 1005.6 - 0.0
20/02:00pm - - - - - NNE 11 19 6 10 1006.0 - 0.0
20/01:30pm - - - - - NNW 11 17 6 9 1006.4 - 0.0
20/01:00pm - - - - - NNE 11 17 6 9 1006.9 - 0.0
20/12:30pm - - - - - NNW 11 22 6 12 1007.3 - 0.0
20/12:00pm - - - - - WNW 7 15 4 8 1007.6 1007.5 0.0
20/11:30am - - - - - N 7 15 4 8 1007.8 - 0.0
20/11:00am - - - - - NNW 7 13 4 7 1008.2 - 0.0
20/10:30am - - - - - WNW 9 15 5 8 1008.4 - 0.0
20/10:00am - - - - - WNW 11 19 6 10 1008.6 - 0.0
20/09:30am - - - - - WNW 11 17 6 9 1008.6 - 0.0
20/09:00am - - - - - WNW 13 20 7 11 1008.7 1008.6 0.0
20/08:30am - - - - - WNW 13 15 7 8 1008.7 - 0.0
20/08:00am - - - - - WNW 13 17 7 9 1008.5 - 0.0
20/07:30am - - - - - WNW 7 9 4 5 1008.6 - 0.0
20/07:00am - - - - - WNW 6 6 3 3 1008.3 - 0.0
20/06:30am - - - - - NW 4 7 2 4 1008.0 - 0.0
20/06:00am - - - - - W 6 7 3 4 1007.5 1007.4 0.0
20/05:30am - - - - - W 7 9 4 5 1007.2 - 0.0
20/04:30am - - - - - W 7 9 4 5 1006.7 - 0.0
20/04:00am - - - - - WNW 7 9 4 5 1006.8 - 0.0
20/03:30am - - - - - NW 7 9 4 5 1006.9 - 0.0
20/03:00am - - - - - NW 7 9 4 5 1006.5 1006.4 0.0
20/02:30am - - - - - WNW 7 9 4 5 1006.1 - 0.0
20/02:00am - - - - - WNW 7 9 4 5 1006.1 - 0.0
20/01:30am - - - - - NW 7 9 4 5 1006.3 - 0.0
20/01:00am - - - - - NNW 7 9 4 5 1007.0 - 0.0
20/12:30am - - - - - N 9 9 5 5 1007.2 - 0.0
20/12:00am - - - - - N 6 7 3 4 1007.6 1007.5 0.0
 
Date/Time
EST
Temp
°C
App
Temp
°C
Dew
Point
°C
Rel
Hum
%
Delta-T
°C
Wind Press
QNH
hPa
Press
MSL
hPa
Rain since
9am
mm
Dir  Spd
km/h
Gust
km/h
Spd
kts
Gust
kts
19/11:30pm - - - - - N 11 13 6 7 1007.7 - 0.0
19/11:00pm - - - - - N 11 13 6 7 1007.6 - 0.0
19/10:30pm - - - - - NNW 9 11 5 6 1007.5 - 0.0
19/10:00pm - - - - - NNW 9 11 5 6 1007.5 - 0.0
19/09:30pm - - - - - N 11 13 6 7 1007.4 - 0.0
19/09:00pm - - - - - N 13 19 7 10 1007.1 1007.0 0.0
19/08:30pm - - - - - N 13 15 7 8 1006.7 - 0.0
19/08:00pm - - - - - N 13 15 7 8 1006.6 - 0.0
19/07:30pm - - - - - N 13 17 7 9 1006.4 - 0.0
19/07:00pm - - - - - N 17 20 9 11 1006.2 - 0.0
19/06:30pm - - - - - N 15 19 8 10 1005.8 - 0.0
19/06:00pm - - - - - N 15 20 8 11 1005.6 1005.5 0.0
19/05:30pm - - - - - N 13 17 7 9 1005.7 - 0.0
19/05:00pm - - - - - N 11 17 6 9 1005.9 - 0.0
19/04:30pm - - - - - N 13 17 7 9 1006.2 - 0.0
19/04:00pm - - - - - N 17 22 9 12 1006.8 - 0.0
19/03:30pm - - - - - N 15 20 8 11 1007.1 - 0.0
19/03:00pm - - - - - N 20 28 11 15 1007.6 1007.5 0.0
19/02:30pm - - - - - NNE 19 24 10 13 1008.0 - 0.0
19/02:00pm - - - - - NNE 22 28 12 15 1008.4 - 0.0
19/01:30pm - - - - - NNE 22 30 12 16 1008.9 - 0.0
19/01:00pm - - - - - NE 15 17 8 9 1009.2 - 0.0
19/12:30pm - - - - - NE 9 11 5 6 1009.3 - 0.0
19/12:00pm - - - - - N 7 11 4 6 1009.7 1009.6 0.0
19/11:30am - - - - - W 7 9 4 5 1009.9 - 0.0
19/11:00am - - - - - WSW 9 15 5 8 1010.1 - 0.0
19/10:30am - - - - - WNW 11 19 6 10 1010.4 - 0.0
19/10:00am - - - - - WNW 11 15 6 8 1010.4 - 0.0
19/09:30am - - - - - W 13 19 7 10 1010.4 - 0.0
19/09:00am - - - - - W 15 20 8 11 1010.8 1010.7 0.2
19/08:30am - - - - - WNW 13 17 7 9 1011.0 - 0.2
19/08:00am - - - - - WNW 9 13 5 7 1011.1 - 0.2
19/07:30am - - - - - CALM 0 0 0 0 1011.2 - 0.2
19/07:00am - - - - - CALM 0 0 0 0 1011.0 - 0.2
19/06:30am - - - - - CALM 0 0 0 0 1010.6 - 0.2
19/06:00am - - - - - CALM 0 0 0 0 1010.2 1010.1 0.2
19/05:30am - - - - - CALM 0 0 0 0 1009.7 - 0.2
19/05:00am - - - - - CALM 0 0 0 0 1009.3 - 0.2
19/04:30am - - - - - CALM 0 0 0 0 1009.3 - 0.2
19/04:00am - - - - - NNW 6 9 3 5 1009.2 - 0.2
19/03:30am - - - - - NW 7 9 4 5 1009.1 - 0.2
19/03:00am - - - - - NW 7 9 4 5 1008.9 1008.8 0.2
19/02:30am - - - - - NNW 6 7 3 4 1009.0 - 0.2
19/02:00am - - - - - NW 7 9 4 5 1009.3 - 0.2
19/01:30am - - - - - NW 4 7 2 4 1009.6 - 0.2

Other Formats:

Comma delimited format used in spreadsheet applications
http://www.bom.gov.au/fwo/IDQ60801/IDQ60801.94260.axf

JavaScript Object Notation format (JSON) in row-major order
http://www.bom.gov.au/fwo/IDQ60801/IDQ60801.94260.json